TimeCDT,TemperatureF,Dew PointF,Humidity,Sea Level PressureIn,VisibilityMPH,Wind Direction,Wind SpeedMPH,Gust SpeedMPH,PrecipitationIn,Events,Conditions,WindDirDegrees,DateUTC
12:15 AM,62.6,41.0,45,29.95,10.0,North,15.0,-,N/A,,Clear,350,2012-10-01 05:15:00
12:34 AM,62.6,41.0,45,29.96,10.0,NNW,10.4,-,N/A,,Clear,340,2012-10-01 05:34:00
12:55 AM,60.8,39.2,45,29.96,10.0,NNW,8.1,-,N/A,,Clear,340,2012-10-01 05:55:00
1:15 AM,60.8,39.2,45,29.96,10.0,NNW,12.7,-,N/A,,Clear,340,2012-10-01 06:15:00
1:34 AM,57.2,39.2,51,29.97,10.0,NNW,11.5,-,N/A,,Clear,340,2012-10-01 06:34:00
1:55 AM,57.2,41.0,55,29.98,10.0,NNW,11.5,-,N/A,,Clear,340,2012-10-01 06:55:00
2:35 AM,57.2,39.2,51,29.98,10.0,NNW,11.5,-,N/A,,Clear,340,2012-10-01 07:35:00
2:55 AM,55.4,41.0,58,29.98,10.0,NNW,15.0,-,N/A,,Clear,340,2012-10-01 07:55:00
3:15 AM,55.4,41.0,58,29.98,10.0,NNW,15.0,-,N/A,,Clear,340,2012-10-01 08:15:00
3:35 AM,55.4,39.2,54,29.99,10.0,NNW,12.7,-,N/A,,Clear,340,2012-10-01 08:35:00
3:55 AM,55.4,39.2,54,30.00,10.0,NNW,11.5,-,N/A,,Clear,340,2012-10-01 08:55:00
4:14 AM,53.6,39.2,58,30.00,10.0,North,10.4,-,N/A,,Clear,350,2012-10-01 09:14:00
4:55 AM,55.4,41.0,58,30.01,10.0,NNW,9.2,-,N/A,,Scattered Clouds,340,2012-10-01 09:55:00
5:14 AM,55.4,41.0,58,30.01,10.0,North,10.4,-,N/A,,Mostly Cloudy,350,2012-10-01 10:14:00
5:35 AM,55.4,41.0,58,30.02,10.0,NNW,10.4,-,N/A,,Scattered Clouds,340,2012-10-01 10:35:00
5:55 AM,57.2,41.0,55,30.02,10.0,North,10.4,-,N/A,,Clear,350,2012-10-01 10:55:00
6:14 AM,57.2,42.8,59,30.02,10.0,North,10.4,-,N/A,,Scattered Clouds,350,2012-10-01 11:14:00
6:35 AM,55.4,41.0,58,30.03,10.0,NNW,10.4,-,N/A,,Scattered Clouds,340,2012-10-01 11:35:00
7:14 AM,55.4,42.8,63,30.04,10.0,NNW,10.4,-,N/A,,Scattered Clouds,330,2012-10-01 12:14:00
7:35 AM,57.2,42.8,59,30.04,10.0,NNW,11.5,-,N/A,,Overcast,330,2012-10-01 12:35:00
8:15 AM,57.2,42.8,59,30.06,10.0,NNW,10.4,-,N/A,,Overcast,340,2012-10-01 13:15:00
8:35 AM,57.2,44.6,63,30.06,10.0,NNW,11.5,-,N/A,,Overcast,340,2012-10-01 13:35:00
8:54 AM,57.2,44.6,63,30.07,10.0,NNW,12.7,-,N/A,,Scattered Clouds,340,2012-10-01 13:54:00
9:15 AM,59.0,44.6,59,30.07,10.0,NNW,18.4,-,N/A,,Clear,340,2012-10-01 14:15:00
9:35 AM,60.8,42.8,52,30.08,10.0,North,17.3,-,N/A,,Clear,350,2012-10-01 14:35:00
10:15 AM,60.8,42.8,52,30.09,10.0,NNW,17.3,21.9,N/A,,Clear,340,2012-10-01 15:15:00
10:35 AM,62.6,41.0,45,30.09,10.0,North,17.3,-,N/A,,Clear,350,2012-10-01 15:35:00
10:54 AM,62.6,39.2,42,30.09,10.0,North,16.1,-,N/A,,Clear,350,2012-10-01 15:54:00
11:15 AM,64.4,39.2,40,30.09,10.0,North,19.6,-,N/A,,Clear,360,2012-10-01 16:15:00
11:35 AM,66.2,37.4,35,30.08,10.0,North,18.4,24.2,N/A,,Clear,350,2012-10-01 16:35:00
11:55 AM,66.2,37.4,35,30.08,10.0,North,17.3,25.3,N/A,,Clear,10,2012-10-01 16:55:00
12:15 PM,66.2,35.6,32,30.08,10.0,North,23.0,28.8,N/A,,Clear,350,2012-10-01 17:15:00
12:34 PM,66.2,33.8,30,30.07,10.0,North,23.0,27.6,N/A,,Clear,360,2012-10-01 17:34:00
1:15 PM,66.2,32.0,28,30.07,10.0,NNW,19.6,25.3,N/A,,Clear,340,2012-10-01 18:15:00
1:35 PM,68.0,30.2,24,30.05,10.0,North,18.4,24.2,N/A,,Clear,350,2012-10-01 18:35:00
1:55 PM,68.0,30.2,24,30.05,10.0,North,16.1,-,N/A,,Clear,360,2012-10-01 18:55:00
2:15 PM,69.8,28.4,21,30.04,10.0,NNW,18.4,-,N/A,,Clear,340,2012-10-01 19:15:00
2:55 PM,69.8,24.8,18,30.04,10.0,North,18.4,26.5,N/A,,Clear,10,2012-10-01 19:55:00
3:15 PM,69.8,24.8,18,30.03,10.0,North,17.3,25.3,N/A,,Clear,350,2012-10-01 20:15:00
3:34 PM,69.8,24.8,18,30.03,10.0,North,20.7,-,N/A,,Clear,350,2012-10-01 20:34:00
3:55 PM,69.8,26.6,20,30.03,10.0,NNW,13.8,24.2,N/A,,Clear,340,2012-10-01 20:55:00
4:15 PM,69.8,26.6,20,30.03,10.0,North,19.6,27.6,N/A,,Clear,360,2012-10-01 21:15:00
4:35 PM,69.8,26.6,20,30.03,10.0,North,18.4,25.3,N/A,,Clear,350,2012-10-01 21:35:00
4:55 PM,69.8,26.6,20,30.02,10.0,North,18.4,25.3,N/A,,Clear,350,2012-10-01 21:55:00
5:15 PM,69.8,26.6,20,30.02,10.0,North,15.0,-,N/A,,Clear,360,2012-10-01 22:15:00
5:35 PM,69.8,24.8,18,30.02,10.0,North,17.3,-,N/A,,Clear,360,2012-10-01 22:35:00
5:55 PM,68.0,26.6,21,30.02,10.0,North,12.7,-,N/A,,Clear,10,2012-10-01 22:55:00
6:15 PM,66.2,26.6,23,30.01,10.0,North,12.7,-,N/A,,Clear,360,2012-10-01 23:15:00
6:35 PM,64.4,26.6,24,30.01,10.0,North,5.8,-,N/A,,Clear,360,2012-10-01 23:35:00
6:55 PM,60.8,26.6,27,30.02,10.0,North,5.8,-,N/A,,Clear,350,2012-10-01 23:55:00
7:15 PM,59.0,26.6,29,30.02,7.0,North,3.5,-,N/A,,Clear,350,2012-10-02 00:15:00
7:35 PM,57.2,26.6,31,30.01,10.0,North,3.5,-,N/A,,Clear,350,2012-10-02 00:35:00
7:55 PM,55.4,26.6,33,30.01,7.0,Calm,Calm,-,N/A,,Clear,0,2012-10-02 00:55:00
8:15 PM,57.2,26.6,31,30.01,5.0,Calm,Calm,-,N/A,,Haze,0,2012-10-02 01:15:00
8:35 PM,55.4,26.6,33,30.00,10.0,Calm,Calm,-,N/A,,Clear,0,2012-10-02 01:35:00
8:55 PM,55.4,28.4,36,30.00,7.0,Calm,Calm,-,N/A,,Clear,0,2012-10-02 01:55:00
9:15 PM,53.6,28.4,38,30.01,10.0,Calm,Calm,-,N/A,,Clear,0,2012-10-02 02:15:00
9:35 PM,51.8,28.4,41,30.01,10.0,Calm,Calm,-,N/A,,Clear,0,2012-10-02 02:35:00
9:55 PM,51.8,28.4,41,30.01,10.0,Calm,Calm,-,N/A,,Clear,0,2012-10-02 02:55:00
10:15 PM,50.0,28.4,43,30.00,10.0,Calm,Calm,-,N/A,,Clear,0,2012-10-02 03:15:00
10:35 PM,51.8,28.4,41,30.00,10.0,Calm,Calm,-,N/A,,Clear,0,2012-10-02 03:35:00
11:15 PM,46.4,32.0,57,30.00,10.0,Calm,Calm,-,N/A,,Clear,0,2012-10-02 04:15:00
11:35 PM,48.2,33.8,58,29.99,7.0,SSE,4.6,-,N/A,,Clear,160,2012-10-02 04:35:00
11:55 PM,46.4,32.0,57,29.99,7.0,SSE,3.5,-,N/A,,Clear,160,2012-10-02 04:55:00